Weather at Thetford Mines Airport

Public forecast

Using degrees Celsius for public forecast. Weather courtesy of forecast.io.

Closest aviation weather report (METAR) to Thetford Mines Airport

Closest report is Sherbrooke Airport, 41.1 nm (76.0 km) SSW.

2024/07/21 04:00 (retrieved 1 hour ago)

CYSC 210400Z AUTO 30004KT 9SM BKN060 BKN078 BKN100 17/17 A2999 RMK SLP158 DENSITY ALT 1200FT

Closest aviation forecast (TAF) to Thetford Mines Airport

Forecast is more than 12 hours old.

Closest forecast is C J.H.L.(Joe) Lecomte) Heliport, 52.1 nm (96.5 km) N.

2024/07/19 18:21 Ammendment (retrieved 1 day ago)

TAF AMD TAF AMD CYOY 191918Z 1918/2006 CNL RMK END OF FLY PROGRAM NXT FCST BY 200000Z